Stormwatcher's Retreat Logo




                  Temp     Hi    Low   Out    Dew  Wind  Wind   Wind    Hi    Hi   Wind   Heat    THW   THSW                Rain  Solar   Solar Hi Solar   UV    UV    Hi     Heat    Cool    In     In    In     In     In   In Air          Wind  Wind    ISS   Arc.
  Date    Time     Out   Temp   Temp   Hum    Pt. Speed   Dir    Run Speed   Dir  Chill  Index  Index  Index   Bar    Rain  Rate   Rad.  Energy    Rad.  Index  Dose   UV     D-D     D-D    Temp   Hum    Dew   Heat    EMC Density     ET   Samp   Tx   Recept  Int.
------------------------------------------------------------------------------------------------------------------------------------------------------------------------------------------------------------------------------------------------------------------------
 3/30/20 12:10a   49.8   49.9   49.8     1  -47.6  21.0   SSW   3.50  42.0   SSW   41.4   46.8   38.4   34.9  29.852  0.02  0.11     0     0.00      0     0.0  0.00   0.0   0.106   0.000   69.2    46   47.5   67.3   8.65  .0740    0.000   211    5    100.0   10 
 3/30/20 12:20a   49.9   49.9   49.8     1  -47.5  21.0   SSW   3.50  45.0   SSW   41.5   46.9   38.5   35.0  29.850  0.01  0.11     0     0.00      0     0.0  0.00   0.0   0.105   0.000   69.1    46   47.4   67.3   8.65  .0740    0.000   212    5    100.0   10 
 3/30/20 12:30a   49.8   49.9   49.8     1  -47.6  19.0   SSW   3.17  39.0   SSW   41.9   46.8   38.9   35.2  29.842  0.01  0.08     0     0.00      0     0.0  0.00   0.0   0.106   0.000   69.0    46   47.4   67.2   8.65  .0740    0.000   211    5    100.0   10 
 3/30/20 12:40a   49.8   49.8   49.8     1  -47.6  21.0   SSW   3.50  35.0     S   41.4   46.8   38.4   34.9  29.837  0.01  0.07     0     0.00      0     0.0  0.00   0.0   0.106   0.000   69.0    46   47.4   67.2   8.65  .0740    0.000   213    5    100.0   10 
 3/30/20 12:50a   49.9   49.9   49.7     1  -47.5  20.0   SSW   3.33  38.0    SW   41.7   46.9   38.7   35.1  29.832  0.01  0.05     0     0.00      0     0.0  0.00   0.0   0.105   0.000   68.9    46   47.3   67.1   8.65  .0740    0.000   208    5    100.0   10 
 3/30/20  1:00a   49.9   50.0   49.8     1  -47.5  23.0   SSW   3.83  41.0    SW   41.1   46.9   38.1   34.8  29.829  0.00  0.04     0     0.00      0     0.0  0.00   0.0   0.105   0.000   68.8    46   47.2   67.0   8.65  .0740    0.012   214    5    100.0   10 
 3/30/20  1:10a   49.6   49.9   49.6     1  -47.7  21.0   SSW   3.50  38.0    SW   41.2   46.6   38.2   34.7  29.822  0.01  0.04     0     0.00      0     0.0  0.00   0.0   0.107   0.000   68.8    46   47.2   67.0   8.65  .0740    0.000   213    5    100.0   10 
 3/30/20  1:20a   49.6   49.6   49.4     1  -47.7  21.0   SSW   3.50  37.0   SSW   41.2   46.6   38.2   34.7  29.824  0.01  0.08     0     0.00      0     0.0  0.00   0.0   0.107   0.000   68.7    46   47.1   66.9   8.65  .0741    0.000   213    5    100.0   10 
 3/30/20  1:30a   49.6   49.9   49.6     1  -47.7  22.0   SSW   3.67  45.0     S   41.0   46.6   38.0   34.6  29.837  0.00  0.04     0     0.00      0     0.0  0.00   0.0   0.107   0.000   68.7    46   47.1   66.9   8.65  .0741    0.000   212    5    100.0   10 
 3/30/20  1:40a   49.5   49.6   49.5     1  -47.8  23.0   SSW   3.83  35.0   SSW   40.7   46.5   37.7   34.4  29.831  0.01  0.04     0     0.00      0     0.0  0.00   0.0   0.108   0.000   68.6    46   47.0   66.8   8.65  .0741    0.000   211    5    100.0   10 
 3/30/20  1:50a   49.7   49.7   49.5     1  -47.6  23.0   SSW   3.83  37.0     S   40.9   46.7   37.9   34.6  29.830  0.01  0.05     0     0.00      0     0.0  0.00   0.0   0.106   0.000   68.6    46   47.0   66.8   8.65  .0741    0.000   213    5    100.0   10 
 3/30/20  2:00a   49.6   49.8   49.6     1  -47.7  24.0   SSW   4.00  40.0    SW   40.6   46.6   37.6   34.4  29.828  0.00  0.05     0     0.00      0     0.0  0.00   0.0   0.107   0.000   68.5    46   46.9   66.8   8.65  .0741    0.013   214    5    100.0   10 
 3/30/20  2:10a   49.8   49.8   49.6     1  -47.6  24.0   SSW   4.00  37.0     S   40.8   46.8   37.8   34.6  29.828  0.01  0.05     0     0.00      0     0.0  0.00   0.0   0.106   0.000   68.4    46   46.8   66.7   8.65  .0741    0.000   210    5    100.0   10 
 3/30/20  2:20a   49.8   49.8   49.7     1  -47.6  23.0   SSW   3.83  42.0    SW   41.0   46.8   38.0   34.7  29.822  0.00  0.04     0     0.00      0     0.0  0.00   0.0   0.106   0.000   68.4    46   46.8   66.7   8.65  .0741    0.000   213    5    100.0   10 
 3/30/20  2:30a   50.0   50.0   49.8     1  -47.5  26.0   SSW   4.33  43.0     S   40.6   47.0   37.6   34.5  29.824  0.01  0.04     0     0.00      0     0.0  0.00   0.0   0.104   0.000   68.3    46   46.7   66.6   8.65  .0741    0.000   211    5    100.0   10 
 3/30/20  2:40a   50.0   50.1   49.8     1  -47.5  23.0   SSW   3.83  37.0     S   41.2   47.0   38.2   34.9  29.823  0.01  0.04     0     0.00      0     0.0  0.00   0.0   0.104   0.000   68.3    46   46.7   66.6   8.65  .0741    0.000   210    5    100.0   10 
 3/30/20  2:50a   50.3   50.3   50.0     1  -47.3  26.0   SSW   4.33  41.0     S   41.0   47.2   37.9   34.8  29.826  0.00  0.04     0     0.00      0     0.0  0.00   0.0   0.102   0.000   68.2    46   46.6   66.5   8.65  .0741    0.000   212    5    100.0   10 
 3/30/20  3:00a   50.5   50.5   50.3     1  -47.1  26.0   SSW   4.33  38.0    SW   41.2   47.3   38.0   34.9  29.827  0.00  0.00     0     0.00      0     0.0  0.00   0.0   0.101   0.000   68.1    46   46.5   66.4   8.65  .0742    0.014   213    5    100.0   10 
 3/30/20  3:10a   50.5   50.5   50.4     1  -47.1  26.0   SSW   4.33  38.0    SW   41.2   47.3   38.0   34.9  29.835  0.00  0.00     0     0.00      0     0.0  0.00   0.0   0.101   0.000   68.1    46   46.5   66.4   8.65  .0742    0.000   210    5    100.0   10 
 3/30/20  3:20a   50.5   50.5   50.4     1  -47.1  24.0   SSW   4.00  35.0    SW   41.6   47.3   38.4   35.2  29.839  0.00  0.00     0     0.00      0     0.0  0.00   0.0   0.101   0.000   68.0    46   46.4   66.3   8.65  .0742    0.000   212    5    100.0   10 
 3/30/20  3:30a   50.7   50.7   50.5     1  -47.0  21.0   SSW   3.50  31.0     S   42.4   47.5   39.2   35.7  29.841  0.00  0.00     0     0.00      0     0.0  0.00   0.0   0.099   0.000   68.0    46   46.4   66.3   8.65  .0742    0.000   212    5    100.0   10 
 3/30/20  3:40a   50.8   50.8   50.7     1  -47.0  20.0   SSW   3.33  30.0   SSW   42.8   47.5   39.5   35.9  29.844  0.00  0.00     0     0.00      0     0.0  0.00   0.0   0.099   0.000   67.9    46   46.3   66.2   8.65  .0742    0.000   211    5    100.0   10 
 3/30/20  3:50a   50.9   50.9   50.8     1  -46.9  20.0   SSW   3.33  29.0    SW   42.9   47.6   39.6   36.0  29.847  0.00  0.00     0     0.00      0     0.0  0.00   0.0   0.098   0.000   67.8    46   46.3   66.1   8.65  .0743    0.000   211    5    100.0   10 
 3/30/20  4:00a   50.8   50.9   50.8     1  -47.0  17.0   SSW   2.83  26.0   SSW   43.5   47.5   40.2   36.3  29.850  0.00  0.00     0     0.00      0     0.0  0.00   0.0   0.099   0.000   67.8    46   46.3   66.1   8.65  .0743    0.013   214    5    100.0   10 
 3/30/20  4:10a   50.8   50.9   50.8     1  -47.0  19.0   SSW   3.17  29.0   SSE   43.0   47.5   39.7   36.0  29.853  0.00  0.00     0     0.00      0     0.0  0.00   0.0   0.099   0.000   67.7    46   46.2   66.0   8.65  .0743    0.000   212    5    100.0   10 
 3/30/20  4:20a   50.8   50.8   50.6     1  -47.0  20.0   SSW   3.33  31.0     S   42.8   47.5   39.5   35.9  29.853  0.00  0.00     0     0.00      0     0.0  0.00   0.0   0.099   0.000   67.7    46   46.2   66.0   8.65  .0743    0.000   210    5    100.0   10 
 3/30/20  4:30a   50.8   50.8   50.8     1  -47.0  21.0   SSW   3.50  29.0     S   42.5   47.5   39.2   35.7  29.852  0.00  0.00     0     0.00      0     0.0  0.00   0.0   0.099   0.000   67.6    46   46.1   65.9   8.65  .0743    0.000   211    5    100.0   10 
 3/30/20  4:40a   50.9   50.9   50.8     1  -46.9  19.0   SSW   3.17  28.0     S   43.1   47.6   39.8   36.1  29.844  0.00  0.00     0     0.00      0     0.0  0.00   0.0   0.098   0.000   67.5    46   46.0   65.8   8.65  .0743    0.000   212    5    100.0   10 
 3/30/20  4:50a   50.9   51.0   50.9     1  -46.9  20.0   SSW   3.33  31.0   SSE   42.9   47.6   39.6   36.0  29.848  0.01  0.00     0     0.00      0     0.0  0.00   0.0   0.098   0.000   67.5    46   46.0   65.8   8.65  .0743    0.000   212    5    100.0   10 
 3/30/20  5:00a   48.6   50.9   48.6     1  -48.3  23.0   SSW   3.83  33.0   WSW   39.6   45.7   36.7   33.4  29.878  0.01  0.05     0     0.00      0     0.0  0.00   0.0   0.114   0.000   67.4    46   45.9   65.6   8.65  .0744    0.012   213    5    100.0   10 
 3/30/20  5:10a   47.6   48.5   47.4     1  -48.9  16.0   WSW   2.67  23.0    SW   40.2   44.8   37.4   33.4  29.885  0.01  0.05     0     0.00      0     0.0  0.00   0.0   0.121   0.000   67.4    46   45.9   65.6   8.65  .0744    0.000   213    5    100.0   10 
 3/30/20  5:20a   47.4   47.9   47.4     1  -49.1  15.0   WSW   2.50  23.0     W   40.2   44.6   37.4   33.3  29.897  0.01  0.12     0     0.00      0     0.0  0.00   0.0   0.122   0.000   67.4    46   45.9   65.6   8.65  .0745    0.000   212    5    100.0   10 
 3/30/20  5:30a   47.3   47.9   47.3     1  -49.1  15.0    SW   2.50  22.0    SW   40.1   44.5   37.3   33.2  29.898  0.01  0.07     0     0.00      0     0.0  0.00   0.0   0.123   0.000   67.3    46   45.8   65.5   8.65  .0745    0.000   211    5    100.0   10 
 3/30/20  5:40a   47.5   47.5   47.0     1  -49.0  11.0   WSW   1.83  17.0   WSW   41.9   44.7   39.1   34.4  29.904  0.00  0.00     0     0.00      0     0.0  0.00   0.0   0.122   0.000   67.3    46   45.8   65.5   8.65  .0745    0.000   211    5    100.0   10 
 3/30/20  5:50a   47.8   47.8   47.5     1  -48.8   9.0    SW   1.50  15.0   WSW   43.3   45.0   40.5   35.5  29.904  0.00  0.00     0     0.00      0     0.0  0.00   0.0   0.119   0.000   67.3    46   45.8   65.5   8.65  .0745    0.000   211    5    100.0   10 
 3/30/20  6:00a   48.4   48.4   47.8     1  -48.4   9.0    SW   1.50  16.0    SW   44.0   45.5   41.1   36.1  29.909  0.00  0.00     0     0.00      0     0.0  0.00   0.0   0.115   0.000   67.3    46   45.8   65.5   8.65  .0745    0.008   212    5    100.0   10 
 3/30/20  6:10a   48.4   48.6   48.4     1  -48.4   9.0   SSW   1.50  14.0   SSE   44.0   45.5   41.1   36.1  29.911  0.00  0.00     0     0.00      0     0.0  0.00   0.0   0.115   0.000   67.2    46   45.7   65.4   8.65  .0745    0.000   212    5    100.0   10 
 3/30/20  6:20a   48.7   48.7   48.4     1  -48.3   8.0   SSW   1.33  12.0   SSE   44.9   45.8   42.0   36.8  29.912  0.00  0.00     0     0.00      0     0.0  0.00   0.0   0.113   0.000   67.2    47   46.3   65.5   8.81  .0745    0.000   211    5    100.0   10 
 3/30/20  6:30a   48.8   48.8   48.5     1  -48.2  10.0   SSW   1.67  15.0   WSW   43.9   45.9   41.0   36.2  29.917  0.00  0.00     0     0.00      0     0.0  0.00   0.0   0.113   0.000   67.4    47   46.5   65.7   8.80  .0745    0.000   212    5    100.0   10 
 3/30/20  6:40a   49.0   49.0   48.7     1  -48.1   9.0   SSW   1.50  14.0    SW   44.7   46.0   41.7   36.7  29.922  0.00  0.00     0     0.00      0     0.0  0.00   0.0   0.111   0.000   67.6    47   46.6   66.0   8.80  .0745    0.000   213    5    100.0   10 
 3/30/20  6:50a   49.1   49.1   49.0     1  -48.0   9.0   SSW   1.50  13.0    SE   44.8   46.1   41.8   36.8  29.924  0.00  0.00     0     0.00      0     0.0  0.00   0.0   0.110   0.000   67.9    47   46.9   66.3   8.79  .0744    0.000   212    5    100.0   10 
 3/30/20  7:00a   49.3   49.3   49.1     1  -47.9  10.0   SSW   1.67  14.0   SSW   44.5   46.3   41.5   36.7  29.932  0.00  0.00     0     0.00      0     0.0  0.00   0.0   0.109   0.000   68.1    47   47.1   66.5   8.79  .0744    0.007   214    5    100.0   10 
 3/30/20  7:10a   49.5   49.5   49.2     1  -47.8  10.0   SSW   1.67  16.0   SSE   44.7   46.5   41.7   36.9  29.939  0.00  0.00     0     0.00      0     0.0  0.00   0.0   0.108   0.000   68.4    47   47.4   66.8   8.78  .0744    0.000   209    5    100.0   10 
 3/30/20  7:20a   49.4   49.5   49.4     1  -47.8  10.0   SSW   1.67  16.0     S   44.6   46.4   41.6   36.8  29.946  0.00  0.00     0     0.00      0     0.0  0.00   0.0   0.108   0.000   68.6    47   47.6   66.9   8.78  .0744    0.000   212    5    100.0   10 
 3/30/20  7:30a   49.0   49.5   49.0     1  -48.1  11.0   SSW   1.83  18.0   WSW   43.6   46.0   40.6   35.9  29.949  0.01  0.00     0     0.00      0     0.0  0.00   0.0   0.111   0.000   68.7    47   47.6   67.0   8.78  .0743    0.000   211    5    100.0   10 
 3/30/20  7:40a   48.9   49.1   48.9     1  -48.1  10.0   SSW   1.67  17.0   SSW   44.0   46.0   41.1   36.3  29.954  0.00  0.00     2     0.03      5     0.0  0.00   0.0   0.112   0.000   68.8    47   47.7   67.1   8.77  .0743    0.000   212    5    100.0   10 
 3/30/20  7:50a   49.0   49.0   48.9     1  -48.1  10.0   SSW   1.67  14.0    SW   44.1   46.0   41.1   36.3  29.959  0.00  0.00     6     0.09      7     0.0  0.00   0.0   0.111   0.000   68.9    47   47.8   67.2   8.77  .0743    0.000   211    5    100.0   10 
 3/30/20  8:00a   48.9   49.0   48.9     1  -48.1   9.0   SSW   1.50  16.0   SSE   44.6   46.0   41.7   36.8  29.966  0.02  0.08     6     0.09      7     0.0  0.00   0.0   0.112   0.000   69.0    47   47.9   67.3   8.77  .0743    0.007   214    5    100.0   10 
 3/30/20  8:10a   48.5   49.0   48.5     1  -48.4   9.0   WSW   1.50  17.0   WSW   44.1   45.6   41.2   36.4  29.975  0.02  0.26     7     0.10      7     0.0  0.00   0.0   0.115   0.000   69.1    47   48.0   67.4   8.77  .0743    0.000   212    5    100.0   10 
 3/30/20  8:20a   48.2   48.5   47.7     1  -48.6  11.0    SW   1.83  16.0    SW   42.7   45.3   39.8   35.4  29.972  0.00  0.04    14     0.20     18     0.0  0.00   0.0   0.117   0.000   69.2    47   48.1   67.4   8.77  .0743    0.000   211    5    100.0   10 
 3/30/20  8:30a   48.8   48.8   48.2     1  -48.2  10.0   SSW   1.67  16.0    SE   43.9   45.9   41.0   38.4  29.975  0.00  0.00    15     0.22     18     0.0  0.00   0.0   0.113   0.000   69.3    47   48.2   67.5   8.76  .0743    0.000   210    5    100.0   10 
 3/30/20  8:40a   48.0   48.7   48.0     1  -48.7  10.0   SSW   1.67  16.0   SSE   43.0   45.1   40.1   37.6  29.977  0.00  0.00    20     0.29     23     0.0  0.00   0.0   0.118   0.000   69.4    47   48.3   67.6   8.76  .0743    0.000   209    5    100.0   10 
 3/30/20  8:50a   48.1   48.6   48.0     1  -48.6  11.0   SSW   1.83  16.0   SSE   42.6   45.2   39.7   37.6  29.982  0.00  0.00    26     0.37     32     0.0  0.00   0.0   0.117   0.000   69.4    47   48.3   67.6   8.76  .0743    0.000   212    5    100.0   10 
 3/30/20  9:00a   48.9   49.0   48.0     1  -48.1  10.0    SW   1.67  16.0    SW   44.0   46.0   41.1   39.1  29.983  0.00  0.00    31     0.44     40     0.0  0.00   0.0   0.112   0.000   69.4    47   48.3   67.6   8.76  .0743    0.007   213    5    100.0   10 
 3/30/20  9:10a   49.5   49.5   49.0     1  -47.8  11.0   WSW   1.83  19.0    SW   44.2   46.5   41.2   39.2  29.992  0.00  0.00    31     0.44     39     0.0  0.00   0.0   0.108   0.000   69.4    47   48.3   67.6   8.76  .0743    0.000   213    5    100.0   10 
 3/30/20  9:20a   49.6   49.6   49.5     1  -47.7   9.0    SW   1.50  16.0    SW   45.4   46.6   42.4   40.3  29.991  0.00  0.00    35     0.50     39     0.0  0.00   0.0   0.107   0.000   69.5    46   47.8   67.6   8.65  .0743    0.000   213    5    100.0   10 
 3/30/20  9:30a   49.7   49.7   49.6     4  -23.0  11.0    SW   1.83  15.0     S   44.4   46.9   41.6   40.2  29.995  0.00  0.00    45     0.65     60     0.0  0.00   0.0   0.106   0.000   69.6    46   47.9   67.6   8.65  .0743    0.000   213    5    100.0   10 
 3/30/20  9:40a   49.7   49.9   49.7     2  -35.7   9.0    SW   1.50  18.0   WSW   45.5   46.8   42.6   41.2  30.002  0.00  0.00    54     0.77     62     2.0  0.14   5.0   0.106   0.000   69.7    46   48.0   67.7   8.65  .0743    0.000   213    5    100.0   10 
 3/30/20  9:50a   49.8   49.8   49.5    11   -2.7  13.0    SW   2.17  18.0     W   43.7   47.2   41.1   39.7  30.006  0.00  0.00    44     0.63     54     0.0  0.00   0.0   0.106   0.000   69.7    46   48.0   67.7   8.65  .0743    0.000   213    5    100.0   10 
 3/30/20 10:00a   49.8   49.8   49.7    13    0.8  12.0    SW   2.00  17.0     S   44.1   47.2   41.5   41.3  30.010  0.01  0.00    77     1.10     91     4.5  0.32   5.0   0.106   0.000   69.9    46   48.2   67.8   8.65  .0743    0.008   208    5    100.0   10 
 3/30/20 10:10a   49.8   50.0   49.8     7  -12.0  11.0    SW   1.83  17.0   WSW   44.6   47.0   41.8   41.7  30.012  0.00  0.00    93     1.33    116     5.0  0.36   5.0   0.106   0.000   69.9    46   48.2   67.8   8.65  .0743    0.000   212    5    100.0   10 
 3/30/20 10:20a   49.7   49.8   49.2    35   23.1  12.0    SW   2.00  18.0   WSW   44.0   48.0   42.3   42.3  30.016  0.00  0.00    79     1.13     84     5.0  0.36   5.0   0.106   0.000   70.1    46   48.4   68.0   8.65  .0743    0.000   211    5    100.0   10 
 3/30/20 10:30a   50.0   50.0   49.7    32   21.3  12.0   SSW   2.00  17.0   WSW   44.3   48.2   42.5   42.7  30.022  0.00  0.00    91     1.30     98     5.0  0.36   5.0   0.104   0.000   70.1    46   48.4   68.0   8.65  .0743    0.000   212    5    100.0   10 
 3/30/20 10:40a   50.0   50.1   49.9    27   17.3  11.0   SSW   1.83  18.0     S   44.8   48.0   42.8   42.8  30.023  0.00  0.00    88     1.26     91     5.0  0.36   5.0   0.104   0.000   70.1    46   48.4   68.0   8.65  .0743    0.000   211    5    100.0   10 
 3/30/20 10:50a   49.9   50.0   49.8    27   17.2  11.0   SSW   1.83  16.0   SSW   44.7   47.9   42.7   42.2  30.028  0.00  0.00    70     1.00     76     5.0  0.36   5.0   0.105   0.000   70.1    46   48.4   68.0   8.65  .0743    0.000   212    5    100.0   10 
 3/30/20 11:00a   49.9   50.0   49.8    25   15.4  11.0   SSW   1.83  15.0   SSE   44.7   47.8   42.6   42.1  30.031  0.00  0.00    75     1.08     81     5.0  0.36   5.0   0.105   0.000   70.1    46   48.4   68.0   8.65  .0743    0.007   209    5    100.0   10 
 3/30/20 11:10a   49.9   50.1   49.9    23   13.5  11.0   SSW   1.83  16.0    SW   44.7   47.7   42.5   42.3  30.031  0.00  0.00    88     1.26    100     5.0  0.36   5.0   0.105   0.000   70.2    46   48.4   68.2   8.65  .0743    0.000   212    5    100.0   10 
 3/30/20 11:20a   49.8   50.0   49.8    12   -0.9  10.0   SSW   1.67  14.0   SSW   45.1   47.2   42.5   42.2  30.033  0.00  0.00    94     1.35    100     5.0  0.36   5.0   0.106   0.000   70.3    46   48.5   68.3   8.64  .0743    0.000   212    5    100.0   10 
 3/30/20 11:30a   49.7   49.8   49.5    15    3.8  12.0   SSW   2.00  18.0   SSW   44.0   47.2   41.5   42.2  30.033  0.00  0.00   134     1.92    190     5.0  0.36   5.0   0.106   0.000   70.4    46   48.6   68.4   8.64  .0743    0.000   212    5    100.0   10 
 3/30/20 11:40a   49.9   49.9   49.7    11   -2.6  12.0   SSW   2.00  19.0     S   44.2   47.3   41.6   43.1  30.035  0.00  0.00   174     2.49    199     5.0  0.36   5.0   0.105   0.000   70.5    46   48.7   68.6   8.64  .0743    0.000   212    5    100.0   10 
 3/30/20 11:50a   49.8   49.9   49.7     9   -6.9  12.0   SSW   2.00  18.0   SSW   44.1   47.1   41.4   42.5  30.038  0.00  0.00   161     2.31    185     5.0  0.36   5.0   0.106   0.000   70.5    46   48.7   68.6   8.64  .0743    0.000   213    5    100.0   10 
 3/30/20 12:00p   49.9   50.0   49.8     5  -18.6  12.0   SSW   2.00  18.0   SSW   44.2   47.1   41.4   42.5  30.036  0.00  0.00   170     2.44    183     5.0  0.36   5.0   0.105   0.000   70.7    46   48.9   68.8   8.64  .0742    0.009   212    5    100.0   10 
 3/30/20 12:10p   49.9   49.9   49.8     1  -47.5  14.0   SSW   2.33  20.0   SSE   43.4   46.9   40.4   41.6  30.034  0.00  0.00   183     2.62    192     5.0  0.36   5.0   0.105   0.000   70.7    46   48.9   68.8   8.64  .0742    0.000   212    5    100.0   10 
 3/30/20 12:20p   49.7   50.0   49.7    17    6.6  15.0   SSW   2.50  20.0   SSW   42.9   47.3   40.5   42.1  30.036  0.00  0.00   183     2.62    202     5.0  0.36   5.0   0.106   0.000   70.8    46   49.0   68.9   8.63  .0742    0.000   213    5    100.0   10 
 3/30/20 12:30p   49.9   50.0   49.7    23   13.5  15.0   SSW   2.50  22.0     N   43.1   47.7   40.9   42.3  30.038  0.00  0.00   170     2.44    192     5.0  0.36   5.0   0.105   0.000   70.7    45   48.3   68.7   8.45  .0743    0.000   213    5    100.0   10 
 3/30/20 12:40p   50.0   50.0   49.9    13    1.0  13.0   SSW   2.17  18.0   SSW   43.9   47.4   41.3   42.0  30.042  0.00  0.00   145     2.08    185     5.0  0.36   5.0   0.104   0.000   70.7    45   48.3   68.7   8.45  .0743    0.000   213    5    100.0   10 
 3/30/20 12:50p   49.9   50.0   49.8     4  -22.9  12.0   SSW   2.00  17.0   SSW   44.2   47.1   41.4   41.7  30.044  0.00  0.00   137     1.96    153     5.0  0.36   5.0   0.105   0.000   70.7    45   48.3   68.7   8.45  .0743    0.000   214    5    100.0   10 
 3/30/20  1:00p   49.9   50.0   49.8     1  -47.5  11.0   SSW   1.83  16.0     S   44.7   46.9   41.7   42.2  30.041  0.00  0.00   150     2.15    158     5.0  0.36   5.0   0.105   0.000   70.7    45   48.3   68.7   8.45  .0743    0.011   212    5    100.0   10 
 3/30/20  1:10p   49.9   49.9   49.9     1  -47.5  11.0   SSW   1.83  17.0   SSE   44.7   46.9   41.7   41.8  30.039  0.00  0.00   132     1.89    160     5.0  0.36   5.0   0.105   0.000   70.8    45   48.4   68.8   8.45  .0743    0.000   209    5    100.0   10 
 3/30/20  1:20p   50.1   50.1   49.9     2  -35.5  12.0   SSW   2.00  18.0   SSW   44.4   47.1   41.4   41.5  30.037  0.00  0.00   131     1.88    155     5.0  0.36   5.0   0.103   0.000   70.8    45   48.4   68.8   8.45  .0742    0.000   212    5    100.0   10 
 3/30/20  1:30p   50.1   50.1   50.0     4  -22.7  13.0   SSW   2.17  19.0   SSE   44.0   47.2   41.1   40.9  30.037  0.00  0.00   118     1.69    137     5.0  0.36   5.0   0.103   0.000   70.5    45   48.1   68.4   8.45  .0743    0.000   213    5    100.0   10 
 3/30/20  1:40p   50.2   50.2   50.0     1  -47.3  13.0   SSW   2.17  18.0   SSW   44.1   47.2   41.1   41.3  30.036  0.00  0.00   140     2.01    190     5.0  0.36   5.0   0.103   0.000   70.4    45   48.0   68.3   8.45  .0743    0.000   212    5    100.0   10 
 3/30/20  1:50p   50.1   50.2   50.1     2  -35.5  15.0   SSW   2.50  21.0    SW   43.3   47.1   40.3   41.8  30.037  0.00  0.00   201     2.88    216     5.0  0.36   5.0   0.103   0.000   70.5    45   48.1   68.4   8.45  .0743    0.000   213    5    100.0   10 
 3/30/20  2:00p   50.2   50.3   50.1     1  -47.3  13.0   SSW   2.17  19.0    SW   44.1   47.2   41.1   41.2  30.037  0.00  0.00   130     1.86    155     5.0  0.36   5.0   0.103   0.000   70.6    45   48.2   68.6   8.45  .0743    0.011   212    5    100.0   10 
 3/30/20  2:10p   50.2   50.2   50.1     1  -47.3  14.0   SSW   2.33  19.0     S   43.7   47.2   40.7   40.9  30.035  0.00  0.00   135     1.94    142     5.0  0.36   5.0   0.103   0.000   70.7    45   48.3   68.7   8.45  .0743    0.000   213    5    100.0   10 
 3/30/20  2:20p   50.2   50.2   50.1     1  -47.3  15.0   SSW   2.50  21.0     S   43.4   47.2   40.4   40.8  30.034  0.00  0.00   145     2.08    156     5.0  0.36   5.0   0.103   0.000   70.8    45   48.4   68.8   8.45  .0742    0.000   212    5    100.0   10 
 3/30/20  2:30p   49.9   50.2   49.9     1  -47.5  15.0   SSW   2.50  24.0   SSW   43.1   46.9   40.1   39.7  30.034  0.00  0.00   106     1.52    172     5.0  0.36   5.0   0.105   0.000   70.9    45   48.5   69.0   8.45  .0742    0.000   211    5    100.0   10 
 3/30/20  2:40p   49.7   49.9   49.6     1  -47.6  14.0   SSW   2.33  21.0    SW   43.2   46.7   40.2   39.0  30.038  0.00  0.00    70     1.00     77     5.0  0.36   5.0   0.106   0.000   71.0    45   48.6   69.1   8.45  .0742    0.000   213    5    100.0   10 
 3/30/20  2:50p   49.4   49.8   49.4     1  -47.8  14.0   SSW   2.33  19.0    SW   42.8   46.4   39.8   40.0  30.042  0.00  0.00   128     1.83    199     4.4  0.31   5.0   0.108   0.000   71.2    45   48.8   69.4   8.45  .0742    0.000   214    5    100.0   10 
 3/30/20  3:00p   49.4   49.5   49.4     1  -47.8  14.0   SSW   2.33  19.0   SSW   42.8   46.4   39.8   40.3  30.045  0.00  0.00   136     1.95    181     5.0  0.36   5.0   0.108   0.000   71.3    45   48.9   69.6   8.45  .0742    0.012   210    5    100.0   10 
 3/30/20  3:10p   49.7   49.7   49.4     1  -47.6  14.0   SSW   2.33  19.0    SW   43.2   46.7   40.2   43.2  30.043  0.00  0.00   258     3.70    302     5.0  0.36   5.0   0.106   0.000   71.5    45   49.0   69.8   8.45  .0741    0.000   213    5    100.0   10 
 3/30/20  3:20p   49.7   49.7   49.5     1  -47.6  15.0   SSW   2.50  20.0     S   42.9   46.7   39.9   42.4  30.044  0.00  0.00   233     3.34    264     5.0  0.36   5.0   0.106   0.000   71.6    45   49.1   70.0   8.45  .0741    0.000   212    5    100.0   10 
 3/30/20  3:30p   49.8   49.9   49.6     1  -47.6  15.0   SSW   2.50  22.0    SW   43.0   46.8   40.0   41.8  30.043  0.00  0.00   192     2.75    209     5.0  0.36   5.0   0.106   0.000   71.7    45   49.2   70.1   8.45  .0741    0.000   212    5    100.0   10 
 3/30/20  3:40p   49.8   49.9   49.7     1  -47.6  18.0   SSW   3.00  25.0   SSW   42.1   46.8   39.1   39.9  30.041  0.00  0.00   143     2.05    171     5.0  0.36   5.0   0.106   0.000   71.8    45   49.3   70.3   8.45  .0741    0.000   213    5    100.0   10 
 3/30/20  3:50p   49.6   49.9   49.6     1  -47.7  18.0   SSW   3.00  27.0   SSW   41.9   46.6   38.9   39.4  30.037  0.00  0.00   127     1.82    144     5.0  0.36   5.0   0.107   0.000   71.9    45   49.4   70.4   8.45  .0741    0.000   214    5    100.0   10 
 3/30/20  4:00p   49.6   49.7   49.5     1  -47.7  21.0   SSW   3.50  33.0     S   41.2   46.6   38.2   37.8  30.046  0.00  0.00    82     1.18    120     5.0  0.36   5.0   0.107   0.000   71.9    45   49.4   70.4   8.45  .0741    0.014   211    5    100.0   10 
 3/30/20  4:10p   49.0   49.5   49.0     1  -48.1  20.0   SSW   3.33  28.0     S   40.7   46.0   37.7   37.2  30.045  0.00  0.00    78     1.12     95     5.0  0.36   5.0   0.111   0.000   72.0    45   49.5   70.6   8.45  .0741    0.000   212    5    100.0   10 
 3/30/20  4:20p   49.1   49.1   49.0     1  -48.0  19.0   SSW   3.17  30.0   SSE   41.0   46.1   38.0   37.6  30.050  0.00  0.00    81     1.16    102     5.0  0.36   5.0   0.110   0.000   72.0    45   49.5   70.6   8.45  .0741    0.000   213    5    100.0   10 
 3/30/20  4:30p   48.9   49.1   48.8     1  -48.1  20.0   SSW   3.33  28.0    SW   40.6   46.0   37.7   36.9  30.051  0.00  0.00    63     0.90     84     2.5  0.18   5.0   0.112   0.000   72.0    45   49.5   70.6   8.45  .0741    0.000   211    5    100.0   10 
 3/30/20  4:40p   49.0   49.1   48.9     1  -48.1  18.0   SSW   3.00  25.0    SW   41.2   46.0   38.2   37.2  30.052  0.00  0.00    54     0.77     69     1.0  0.07   5.0   0.111   0.000   72.0    45   49.5   70.6   8.45  .0741    0.000   213    5    100.0   10 
 3/30/20  4:50p   49.3   49.4   49.0     1  -47.9  20.0   SSW   3.33  27.0   SSE   41.0   46.3   38.0   37.2  30.054  0.00  0.00    60     0.86     70     5.0  0.36   5.0   0.109   0.000   72.0    45   49.5   70.6   8.45  .0741    0.000   212    5    100.0   10 
 3/30/20  5:00p   48.7   49.3   48.7     1  -48.3  21.0   SSW   3.50  30.0    SW   40.1   45.8   37.2   36.0  30.054  0.00  0.00    41     0.59     46     0.0  0.00   0.0   0.113   0.000   71.9    45   49.4   70.4   8.45  .0741    0.014   213    5    100.0   10 
 3/30/20  5:10p   48.7   48.7   48.5     1  -48.3  17.0   SSW   2.83  26.0     S   41.1   45.8   38.2   37.7  30.051  0.00  0.00    69     0.99     84     4.5  0.32   5.0   0.113   0.000   71.9    45   49.4   70.4   8.45  .0741    0.000   212    5    100.0   10 
 3/30/20  5:20p   48.9   48.9   48.6     1  -48.1  15.0   SSW   2.50  22.0   SSW   42.0   46.0   39.1   39.1  30.047  0.00  0.00    85     1.22     93     5.0  0.36   5.0   0.112   0.000   72.0    45   49.5   70.6   8.45  .0741    0.000   214    5    100.0   10 
 3/30/20  5:30p   49.3   49.3   48.9     1  -47.9  17.0   SSW   2.83  27.0     S   41.8   46.3   38.8   38.4  30.042  0.00  0.00    70     1.00     81     5.0  0.36   5.0   0.109   0.000   71.9    45   49.4   70.4   8.45  .0741    0.000   213    5    100.0   10 
 3/30/20  5:40p   49.6   49.6   49.3     1  -47.7  19.0   SSW   3.17  27.0     S   41.6   46.6   38.6   37.3  30.046  0.00  0.00    33     0.47     46     0.0  0.00   0.0   0.107   0.000   71.8    45   49.3   70.3   8.45  .0741    0.000   212    5    100.0   10 
 3/30/20  5:50p   49.1   49.7   49.1     1  -48.0  20.0   SSW   3.33  29.0     S   40.8   46.1   37.8   35.5  30.046  0.00  0.00    40     0.57     46     0.0  0.00   0.0   0.110   0.000   71.8    45   49.3   70.3   8.45  .0741    0.000   213    5    100.0   10 
 3/30/20  6:00p   49.1   49.2   49.1     1  -48.0  19.0   SSW   3.17  30.0   SSE   41.0   46.1   38.0   35.7  30.046  0.00  0.00    46     0.66     49     0.0  0.00   0.0   0.110   0.000   71.5    44   48.4   69.8   8.32  .0742    0.013   212    5    100.0   10 
 3/30/20  6:10p   48.8   49.0   48.8     1  -48.2  15.0   SSW   2.50  22.0   SSW   41.9   45.9   39.0   36.5  30.046  0.00  0.00    48     0.69     51     0.0  0.00   0.0   0.113   0.000   71.3    45   48.9   69.6   8.45  .0742    0.000   214    5    100.0   10 
 3/30/20  6:20p   49.1   49.1   48.8     1  -48.0  15.0   SSW   2.50  22.0   SSW   42.2   46.1   39.2   36.5  30.045  0.00  0.00    39     0.56     51     0.0  0.00   0.0   0.110   0.000   71.2    45   48.8   69.4   8.45  .0742    0.000   211    5    100.0   10 
 3/30/20  6:30p   49.5   49.6   49.1     1  -47.8  13.0   SSW   2.17  18.0   SSW   43.3   46.5   40.3   37.1  30.044  0.00  0.00    25     0.36     28     0.0  0.00   0.0   0.108   0.000   71.2    45   48.8   69.4   8.45  .0742    0.000   210    5    100.0   10 
 3/30/20  6:40p   49.5   49.7   49.5     1  -47.8  15.0   SSW   2.50  21.0   SSW   42.7   46.5   39.7   36.6  30.040  0.00  0.00    19     0.27     23     0.0  0.00   0.0   0.108   0.000   71.2    45   48.8   69.4   8.45  .0742    0.000   213    5    100.0   10 
 3/30/20  6:50p   49.6   49.6   49.5     1  -47.7  14.0   SSW   2.33  19.0    SW   43.1   46.6   40.1   36.9  30.036  0.00  0.00    14     0.20     16     0.0  0.00   0.0   0.107   0.000   71.2    45   48.8   69.4   8.45  .0742    0.000   211    5    100.0   10 
 3/30/20  7:00p   49.8   49.8   49.5     1  -47.6  18.0   SSW   3.00  26.0   SSE   42.1   46.8   39.1   36.2  30.035  0.00  0.00    10     0.14     12     0.0  0.00   0.0   0.106   0.000   71.1    45   48.7   69.3   8.45  .0742    0.010   211    5    100.0   10 
 3/30/20  7:10p   49.5   49.8   49.4     1  -47.8  18.0   SSW   3.00  26.0   SSW   41.8   46.5   38.8   35.8  30.032  0.00  0.00     5     0.07      9     0.0  0.00   0.0   0.108   0.000   71.0    45   48.6   69.1   8.45  .0742    0.000   213    5    100.0   10 
 3/30/20  7:20p   49.6   49.7   49.5     1  -47.7  20.0   SSW   3.33  28.0   SSE   41.4   46.6   38.4   35.6  30.033  0.00  0.00     9     0.13     16     0.0  0.00   0.0   0.107   0.000   71.0    45   48.6   69.1   8.45  .0742    0.000   213    5    100.0   10 
 3/30/20  7:30p   49.7   49.7   49.6     1  -47.6  19.0   SSW   3.17  28.0   SSW   41.7   46.7   38.7   35.8  30.034  0.00  0.00    11     0.16     16     0.0  0.00   0.0   0.106   0.000   70.9    45   48.5   69.0   8.45  .0742    0.000   211    5    100.0   10 
 3/30/20  7:40p   49.5   49.8   49.5     1  -47.8  19.0   SSW   3.17  26.0   SSW   41.5   46.5   38.5   35.5  30.032  0.00  0.00     2     0.03      5     0.0  0.00   0.0   0.108   0.000   70.8    45   48.4   68.8   8.45  .0742    0.000   213    5    100.0   10 
 3/30/20  7:50p   49.4   49.6   49.3     1  -47.8  20.0   SSW   3.33  28.0   SSW   41.1   46.4   38.1   35.2  30.032  0.00  0.00     0     0.00      0     0.0  0.00   0.0   0.108   0.000   70.7    45   48.3   68.7   8.45  .0743    0.000   213    5    100.0   10 
 3/30/20  8:00p   49.4   49.4   49.3     1  -47.8  19.0   SSW   3.17  28.0   SSE   41.4   46.4   38.4   35.4  30.032  0.00  0.00     0     0.00      0     0.0  0.00   0.0   0.108   0.000   70.7    45   48.3   68.7   8.45  .0743    0.013   212    5    100.0   10 
 3/30/20  8:10p   49.4   49.4   49.3     1  -47.8  19.0   SSW   3.17  27.0   SSW   41.4   46.4   38.4   35.4  30.035  0.00  0.00     0     0.00      0     0.0  0.00   0.0   0.108   0.000   70.6    45   48.2   68.6   8.45  .0743    0.000   214    5    100.0   10 
 3/30/20  8:20p   49.4   49.5   49.4     1  -47.8  18.0   SSW   3.00  25.0     N   41.6   46.4   38.6   35.5  30.035  0.00  0.00     0     0.00      0     0.0  0.00   0.0   0.108   0.000   70.5    45   48.1   68.4   8.45  .0743    0.000   211    5    100.0   10 
 3/30/20  8:30p   49.6   49.6   49.4     1  -47.7  17.0   SSW   2.83  23.0   SSE   42.2   46.6   39.2   36.0  30.036  0.00  0.00     0     0.00      0     0.0  0.00   0.0   0.107   0.000   70.5    45   48.1   68.4   8.45  .0743    0.000   213    5    100.0   10 
 3/30/20  8:40p   49.6   49.6   49.5     1  -47.7  17.0   SSW   2.83  25.0   SSW   42.2   46.6   39.2   36.0  30.040  0.01  0.00     0     0.00      0     0.0  0.00   0.0   0.107   0.000   70.4    45   48.0   68.3   8.45  .0743    0.000   214    5    100.0   10 
 3/30/20  8:50p   49.7   49.7   49.5     1  -47.6  18.0   SSW   3.00  26.0   SSE   42.0   46.7   39.0   35.9  30.039  0.00  0.00     0     0.00      0     0.0  0.00   0.0   0.106   0.000   70.3    45   47.9   68.2   8.45  .0743    0.000   212    5    100.0   10 
 3/30/20  9:00p   48.8   49.7   48.8     1  -48.2  19.0    SW   3.17  31.0    SW   40.7   45.9   37.8   34.8  30.054  0.03  0.25     0     0.00      0     0.0  0.00   0.0   0.113   0.000   70.2    44   47.3   68.0   8.35  .0744    0.011   212    5    100.0   10 
 3/30/20  9:10p   47.0   48.7   46.7     1  -49.3  18.0    SW   3.00  27.0    SW   38.9   44.2   36.1   33.0  30.053  0.03  0.25     0     0.00      0     0.0  0.00   0.0   0.125   0.000   70.2    44   47.3   68.0   8.35  .0744    0.000   213    5    100.0   10 
 3/30/20  9:20p   48.7   48.7   47.0     1  -48.3  15.0    SW   2.50  24.0    SW   41.7   45.8   38.8   35.4  30.048  0.03  0.40     0     0.00      0     0.0  0.00   0.0   0.113   0.000   70.1    44   47.2   67.8   8.35  .0744    0.000   212    5    100.0   10 
 3/30/20  9:30p   47.8   49.0   47.8     1  -48.8  17.0   SSW   2.83  28.0    SW   40.1   45.0   37.3   34.1  30.048  0.01  0.12     0     0.00      0     0.0  0.00   0.0   0.119   0.000   70.0    44   47.1   67.7   8.35  .0744    0.000   213    5    100.0   10 
 3/30/20  9:40p   47.6   47.8   47.6     1  -48.9  17.0   SSW   2.83  26.0    SW   39.9   44.8   37.1   33.9  30.048  0.00  0.04     0     0.00      0     0.0  0.00   0.0   0.121   0.000   69.9    44   47.0   67.6   8.35  .0744    0.000   213    5    100.0   10 
 3/30/20  9:50p   47.6   47.7   47.5     1  -48.9  14.0   SSW   2.33  21.0   SSW   40.8   44.8   38.0   34.5  30.044  0.00  0.00     0     0.00      0     0.0  0.00   0.0   0.121   0.000   69.8    44   46.9   67.6   8.35  .0745    0.000   211    5    100.0   10 
 3/30/20 10:00p   47.8   47.8   47.6     1  -48.8  12.0   SSW   2.00  16.0   SSW   41.8   45.0   39.0   35.3  30.043  0.00  0.00     0     0.00      0     0.0  0.00   0.0   0.119   0.000   69.7    44   46.8   67.5   8.35  .0745    0.010   213    5    100.0   10 
 3/30/20 10:10p   47.9   47.9   47.8     1  -48.8  12.0   SSW   2.00  20.0   SSE   41.9   45.0   39.0   35.3  30.043  0.00  0.00     0     0.00      0     0.0  0.00   0.0   0.119   0.000   69.6    44   46.7   67.4   8.35  .0745    0.000   213    5    100.0   10 
 3/30/20 10:20p   48.6   48.6   47.9     1  -48.3  12.0   SSW   2.00  17.0   SSE   42.7   45.7   39.8   36.1  30.042  0.00  0.00     0     0.00      0     0.0  0.00   0.0   0.114   0.000   69.5    44   46.6   67.4   8.35  .0745    0.000   211    5    100.0   10 
 3/30/20 10:30p   49.3   49.3   48.6     1  -47.9  13.0   SSW   2.17  19.0   SSW   43.1   46.3   40.1   36.5  30.041  0.00  0.00     0     0.00      0     0.0  0.00   0.0   0.109   0.000   69.4    44   46.5   67.3   8.35  .0745    0.000   212    5    100.0   10 
 3/30/20 10:40p   49.5   49.5   49.3     1  -47.8  14.0   SSW   2.33  19.0   SSW   43.0   46.5   40.0   36.5  30.040  0.00  0.00     0     0.00      0     0.0  0.00   0.0   0.108   0.000   69.4    44   46.5   67.3   8.35  .0745    0.000   212    5    100.0   10 
 3/30/20 10:50p   49.6   49.6   49.5     1  -47.7  15.0   SSW   2.50  22.0   SSE   42.8   46.6   39.8   36.4  30.039  0.00  0.00     0     0.00      0     0.0  0.00   0.0   0.107   0.000   69.3    44   46.4   67.2   8.35  .0745    0.000   213    5    100.0   10 
 3/30/20 11:00p   49.7   49.7   49.6     1  -47.6  14.0   SSW   2.33  20.0   SSE   43.2   46.7   40.2   36.7  30.039  0.00  0.00     0     0.00      0     0.0  0.00   0.0   0.106   0.000   69.2    44   46.4   67.1   8.35  .0745    0.009   211    5    100.0   10 
 3/30/20 11:10p   49.8   49.8   49.7     1  -47.6  13.0   SSW   2.17  21.0   SSE   43.7   46.8   40.7   37.1  30.037  0.00  0.00     0     0.00      0     0.0  0.00   0.0   0.106   0.000   69.2    44   46.4   67.1   8.35  .0745    0.000   213    5    100.0   10 
 3/30/20 11:20p   49.6   49.8   49.6     1  -47.7  13.0   SSW   2.17  22.0   SSE   43.4   46.6   40.4   36.8  30.037  0.01  0.00     0     0.00      0     0.0  0.00   0.0   0.107   0.000   69.1    44   46.3   67.1   8.35  .0746    0.000   211    5    100.0   10 
 3/30/20 11:30p   48.7   49.6   48.7     1  -48.3  13.0   SSW   2.17  26.0     S   42.4   45.8   39.5   35.9  30.035  0.00  0.00     0     0.00      0     0.0  0.00   0.0   0.113   0.000   69.0    44   46.2   67.0   8.35  .0746    0.000   211    5    100.0   10 
 3/30/20 11:40p   48.2   48.7   48.2     1  -48.6  15.0    SW   2.50  19.0     S   41.1   45.3   38.2   34.8  30.040  0.00  0.00     0     0.00      0     0.0  0.00   0.0   0.117   0.000   69.0    44   46.2   67.0   8.35  .0746    0.000   213    5    100.0   10 
 3/30/20 11:50p   47.3   48.4   47.3     1  -49.1  15.0     W   2.50  20.0    SW   40.1   44.5   37.3   33.9  30.046  0.00  0.00     0     0.00      0     0.0  0.00   0.0   0.123   0.000   68.9    44   46.1   66.9   8.35  .0746    0.000   212    5    100.0   10 
 3/31/20 12:00a   47.1   47.3   46.9     1  -49.3  13.0     W   2.17  18.0     W   40.6   44.3   37.8   34.1  30.048  0.01  0.00     0     0.00      0     0.0  0.00   0.0   0.124   0.000   68.8    44   46.0   66.8   8.35  .0746    0.009   211    5    100.0   10 
 3/31/20 12:10a   47.0   47.2   47.0     1  -49.3  11.0   WSW   1.83  15.0   WSW   41.3   44.2   38.5   34.6  30.048  0.01  0.06     0     0.00      0     0.0  0.00   0.0   0.125   0.000   68.8    45   46.6   66.9   8.47  .0746    0.000   210    5    100.0   10 
 3/31/20 12:20a   47.2   47.3   47.1     1  -49.2  10.0   WSW   1.67  14.0   WSW   42.0   44.4   39.2   35.2  30.046  0.01  0.07     0     0.00      0     0.0  0.00   0.0   0.124   0.000   68.7    45   46.5   66.8   8.48  .0746    0.000   212    5    100.0   10 
 3/31/20 12:30a   47.5   47.5   47.2     1  -49.0  10.0   WSW   1.67  14.0    SW   42.4   44.7   39.6   35.6  30.043  0.01  0.07     0     0.00      0     0.0  0.00   0.0   0.122   0.000   68.6    45   46.4   66.7   8.48  .0746    0.000   213    5    100.0   10 
 3/31/20 12:40a   47.7   47.7   47.5     1  -48.9   8.0    SW   1.33  14.0   WSW   43.7   44.9   40.9   36.6  30.036  0.01  0.06     0     0.00      0     0.0  0.00   0.0   0.120   0.000   68.6    44   45.8   66.6   8.35  .0746    0.000   213    5    100.0   10 
 3/31/20 12:50a   47.5   47.8   47.5     1  -49.0   7.0    SW   1.17  12.0     S   44.2   44.7   41.4   36.9  30.033  0.00  0.04     0     0.00      0     0.0  0.00   0.0   0.122   0.000   68.5    44   45.7   66.5   8.35  .0746    0.000   213    5    100.0   10 
 3/31/20  1:00a   47.6   47.6   47.5     1  -48.9   7.0    SW   1.17  13.0   SSE   44.3   44.8   41.5   37.1  30.032  0.00  0.00     0     0.00      0     0.0  0.00   0.0   0.121   0.000   68.4    44   45.6   66.4   8.35  .0747    0.007   212    5    100.0   10 
 3/31/20  1:10a   47.9   47.9   47.6     1  -48.8   8.0    SW   1.33  15.0    SW   44.0   45.0   41.1   36.8  30.034  0.00  0.00     0     0.00      0     0.0  0.00   0.0   0.119   0.000   68.4    44   45.6   66.4   8.35  .0747    0.000   211    5    100.0   10 
 3/31/20  1:20a   48.1   48.2   47.9     1  -48.6   9.0    SW   1.50  15.0   WSW   43.6   45.2   40.7   36.6  30.036  0.00  0.00     0     0.00      0     0.0  0.00   0.0   0.117   0.000   68.3    44   45.5   66.4   8.35  .0747    0.000   213    5    100.0   10 
 3/31/20  1:30a   48.3   48.3   48.1     1  -48.5  10.0   SSW   1.67  16.0   SSE   43.3   45.4   40.4   36.4  30.037  0.00  0.00     0     0.00      0     0.0  0.00   0.0   0.116   0.000   68.3    44   45.5   66.4   8.35  .0747    0.000   213    5    100.0   10 
 3/31/20  1:40a   48.3   48.4   48.2     1  -48.5  11.0    SW   1.83  19.0   WSW   42.8   45.4   39.9   36.1  30.038  0.00  0.00     0     0.00      0     0.0  0.00   0.0   0.116   0.000   68.2    44   45.4   66.3   8.35  .0747    0.000   213    5    100.0   10 
 3/31/20  1:50a   48.5   48.5   48.2     1  -48.4  12.0   SSW   2.00  19.0   WSW   42.6   45.6   39.7   36.0  30.042  0.01  0.00     0     0.00      0     0.0  0.00   0.0   0.115   0.000   68.2    44   45.4   66.3   8.35  .0747    0.000   212    5    100.0   10 
 3/31/20  2:00a   48.6   48.7   48.5     1  -48.3  13.0    SW   2.17  20.0    SW   42.3   45.7   39.4   35.8  30.045  0.00  0.00     0     0.00      0     0.0  0.00   0.0   0.114   0.000   68.1    44   45.4   66.2   8.35  .0747    0.007   212    5    100.0   10 
 3/31/20  2:10a   48.5   48.7   48.5     1  -48.4  13.0    SW   2.17  21.0   WSW   42.2   45.6   39.3   35.7  30.049  0.00  0.00     0     0.00      0     0.0  0.00   0.0   0.115   0.000   68.0    44   45.3   66.1   8.35  .0748    0.000   211    5    100.0   10 
 3/31/20  2:20a   48.5   48.5   48.4     1  -48.4  11.0   SSW   1.83  19.0   WSW   43.1   45.6   40.2   36.4  30.046  0.00  0.00     0     0.00      0     0.0  0.00   0.0   0.115   0.000   67.9    44   45.2   66.0   8.35  .0748    0.000   212    5    100.0   10 
 3/31/20  2:30a   48.5   48.7   48.4     1  -48.4  11.0   SSW   1.83  19.0    SW   43.1   45.6   40.2   36.4  30.046  0.00  0.00     0     0.00      0     0.0  0.00   0.0   0.115   0.000   67.9    44   45.2   66.0   8.35  .0748    0.000   214    5    100.0   10 
 3/31/20  2:40a   48.6   48.6   48.4     1  -48.3  12.0    SW   2.00  19.0    SW   42.7   45.7   39.8   36.1  30.047  0.00  0.00     0     0.00      0     0.0  0.00   0.0   0.114   0.000   67.8    44   45.1   65.9   8.35  .0748    0.000   213    5    100.0   10 
 3/31/20  2:50a   48.4   48.6   48.3     1  -48.4  12.0    SW   2.00  19.0   WSW   42.5   45.5   39.6   35.9  30.046  0.00  0.00     0     0.00      0     0.0  0.00   0.0   0.115   0.000   67.8    44   45.1   65.9   8.35  .0748    0.000   212    5    100.0   10 
 3/31/20  3:00a   48.5   48.5   48.3     1  -48.4  12.0    SW   2.00  19.0   WSW   42.6   45.6   39.7   36.0  30.041  0.00  0.00     0     0.00      0     0.0  0.00   0.0   0.115   0.000   67.7    44   45.0   65.7   8.35  .0748    0.008   211    5    100.0   10 
 3/31/20  3:10a   48.8   48.8   48.5     1  -48.2  12.0    SW   2.00  18.0    SW   43.0   45.9   40.1   36.4  30.040  0.00  0.00     0     0.00      0     0.0  0.00   0.0   0.113   0.000   67.7    44   45.0   65.7   8.35  .0748    0.000   212    5    100.0   10 
 3/31/20  3:20a   48.6   48.8   48.6     1  -48.3  12.0   SSW   2.00  18.0    SW   42.7   45.7   39.8   36.1  30.037  0.00  0.00     0     0.00      0     0.0  0.00   0.0   0.114   0.000   67.5    44   44.8   65.5   8.35  .0748    0.000   213    5    100.0   10 
 3/31/20  3:30a   48.5   48.7   48.5     1  -48.4  11.0   SSW   1.83  16.0    SE   43.1   45.6   40.2   36.4  30.041  0.00  0.00     0     0.00      0     0.0  0.00   0.0   0.115   0.000   67.5    44   44.8   65.5   8.35  .0748    0.000   214    5    100.0   10 
 3/31/20  3:40a   48.6   48.6   48.3     1  -48.3  11.0    SW   1.83  19.0   SSE   43.2   45.7   40.3   36.5  30.040  0.00  0.00     0     0.00      0     0.0  0.00   0.0   0.114   0.000   67.5    44   44.8   65.5   8.35  .0748    0.000   209    5    100.0   10 
 3/31/20  3:50a   46.2   48.8   46.2     1  -49.8  14.0     W   2.33  27.0     W   39.2   43.5   36.5   33.0  30.056  0.01  0.00     0     0.00      0     0.0  0.00   0.0   0.131   0.000   67.4    44   44.7   65.4   8.35  .0749    0.000   212    5    100.0   10 
 3/31/20  4:00a   46.1   46.2   45.8     1  -49.9  13.0   WSW   2.17  19.0     W   39.4   43.4   36.7   33.0  30.050  0.02  0.21     0     0.00      0     0.0  0.00   0.0   0.131   0.000   67.3    44   44.6   65.3   8.35  .0749    0.008   211    5    100.0   10 
 3/31/20  4:10a   46.8   46.8   46.2     1  -49.4   9.0   WSW   1.50  15.0   WSW   42.1   44.0   39.3   35.1  30.044  0.00  0.04     0     0.00      0     0.0  0.00   0.0   0.126   0.000   67.3    44   44.6   65.3   8.35  .0749    0.000   212    5    100.0   10 
 3/31/20  4:20a   47.2   47.3   46.8     1  -49.2  10.0   WSW   1.67  15.0   WSW   42.0   44.4   39.2   35.2  30.045  0.00  0.00     0     0.00      0     0.0  0.00   0.0   0.124   0.000   67.2    44   44.5   65.2   8.35  .0749    0.000   213    5    100.0   10 
 3/31/20  4:30a   47.6   47.8   47.3     1  -48.9   9.0   WSW   1.50  13.0   WSW   43.0   44.8   40.2   36.1  30.044  0.00  0.00     0     0.00      0     0.0  0.00   0.0   0.121   0.000   67.1    45   45.0   65.2   8.51  .0749    0.000   212    5    100.0   10 
 3/31/20  4:40a   47.8   47.8   47.6     1  -48.8  11.0   WSW   1.83  14.0   WSW   42.3   45.0   39.5   35.7  30.047  0.00  0.00     0     0.00      0     0.0  0.00   0.0   0.119   0.000   67.0    45   44.9   65.1   8.51  .0749    0.000   211    5    100.0   10 
 3/31/20  4:50a   47.8   48.2   47.8     1  -48.8  11.0   WSW   1.83  16.0    SW   42.3   45.0   39.5   35.7  30.044  0.00  0.00     0     0.00      0     0.0  0.00   0.0   0.119   0.000   67.0    45   44.9   65.1   8.51  .0749    0.000   212    5    100.0   10 
 3/31/20  5:00a   47.9   47.9   47.7     1  -48.8   7.0   WNW   1.17   9.0     W   44.7   45.0   41.8   37.4  30.050  0.00  0.00     0     0.00      0     0.0  0.00   0.0   0.119   0.000   66.9    45   44.9   65.0   8.51  .0749    0.007   212    5    100.0   10 
 3/31/20  5:10a   48.1   48.1   47.8     1  -48.6   9.0   WNW   1.50  12.0     W   43.6   45.2   40.7   36.6  30.054  0.00  0.00     0     0.00      0     0.0  0.00   0.0   0.117   0.000   66.9    45   44.9   65.0   8.51  .0749    0.000   211    5    100.0   10 
 3/31/20  5:20a   48.2   48.3   48.1     1  -48.6  10.0   WNW   1.67  13.0   WNW   43.2   45.3   40.3   36.3  30.054  0.00  0.00     0     0.00      0     0.0  0.00   0.0   0.117   0.000   66.8    45   44.8   64.9   8.51  .0750    0.000   213    5    100.0   10 
 3/31/20  5:30a   47.8   48.2   47.7     1  -48.8  10.0   WNW   1.67  15.0     W   42.8   45.0   40.0   36.0  30.060  0.00  0.00     0     0.00      0     0.0  0.00   0.0   0.119   0.000   66.8    45   44.8   64.9   8.51  .0750    0.000   212    5    100.0   10 
 3/31/20  5:40a   47.6   47.8   47.5     1  -48.9  11.0   WNW   1.83  14.0     W   42.0   44.8   39.2   35.4  30.062  0.00  0.00     0     0.00      0     0.0  0.00   0.0   0.121   0.000   66.7    45   44.7   64.7   8.52  .0750    0.000   211    5    100.0   10 
 3/31/20  5:50a   47.8   47.8   47.6     1  -48.8  10.0     W   1.67  13.0   WNW   42.8   45.0   40.0   36.0  30.062  0.00  0.00     0     0.00      0     0.0  0.00   0.0   0.119   0.000   66.6    45   44.6   64.6   8.52  .0750    0.000   212    5    100.0   10 
 3/31/20  6:00a   48.1   48.1   47.7     1  -48.6   9.0     W   1.50  12.0     W   43.6   45.2   40.7   36.6  30.065  0.00  0.00     0     0.00      0     0.0  0.00   0.0   0.117   0.000   66.6    45   44.6   64.6   8.52  .0750    0.007   208    5    100.0   10 
 3/31/20  6:10a   48.2   48.2   48.0     1  -48.6  11.0   WSW   1.83  15.0     W   42.7   45.3   39.8   36.0  30.069  0.00  0.00     0     0.00      0     0.0  0.00   0.0   0.117   0.000   66.5    45   44.5   64.5   8.52  .0751    0.000   212    5    100.0   10 
 3/31/20  6:20a   48.3   48.4   48.1    10   -5.9  12.0     W   2.00  17.0     W   42.4   45.7   39.8   36.5  30.070  0.00  0.00     0     0.00      0     0.0  0.00   0.0   0.116   0.000   66.6    46   45.2   64.7   8.65  .0750    0.000   212    5    100.0   10 
Email: AdamSPAM@StormwatchersRetreat.com (To send me email remove the word 'SPAM' from my email address.)